CheckWX is a tool to help pilots better visualize weather data.  It is not intended as a substitute for an official pre-flight weather briefing.

06:15:36 UTC

KOKC TAF
Will Rogers World Airport
Oklahoma City, Oklahoma, USA
KOKC 220520Z 2206/2306 18016KT P6SM SCT120 WS015/19050KT FM221200 18014KT P6SM BKN015 FM221700 18013KT P6SM BKN035 FM230100 35010KT P6SM BKN035

Apr-22@
06:00 UTC

Apr-22 @ 06:00 UTC

Apr-22@
12:00 UTC

Apr-22 @ 12:00 UTC

KOKC 220520Z 2206/2306 18016KT P6SM SCT120 WS015/19050KT
Wind
  • 180° at 16 KTS
Cloud Levels
  • Scattered at 12,000' AGL

Apr-22@
12:00 UTC

Apr-22 @ 12:00 UTC

Apr-22@
17:00 UTC

Apr-22 @ 17:00 UTC

FM221200 18014KT P6SM BKN015

From

From Standard forecast or significant change

Wind
  • 180° at 14 KTS
Cloud Levels
  • Broken at 1,500' AGL

Apr-22@
17:00 UTC

Apr-22 @ 17:00 UTC

Apr-23@
01:00 UTC

Apr-23 @ 01:00 UTC

FM221700 18013KT P6SM BKN035

From

From Standard forecast or significant change

Wind
  • 180° at 13 KTS
Cloud Levels
  • Broken at 3,500' AGL

Apr-23@
01:00 UTC

Apr-23 @ 01:00 UTC

Apr-23@
06:00 UTC

Apr-23 @ 06:00 UTC

FM230100 35010KT P6SM BKN035

From

From Standard forecast or significant change

Wind
  • 350° at 10 KTS
Cloud Levels
  • Broken at 3,500' AGL